createdAt,value
2023-02-04T00:01:15.768Z,1.83
2023-02-04T00:03:43.510Z,1.65
2023-02-04T00:06:11.444Z,1.85
2023-02-04T00:08:39.616Z,1.70
2023-02-04T00:11:07.866Z,1.83
2023-02-04T00:13:35.757Z,1.77
2023-02-04T00:16:03.400Z,2.70
2023-02-04T00:18:32.452Z,2.50
2023-02-04T00:21:00.158Z,2.90
2023-02-04T00:23:28.248Z,2.85
2023-02-04T00:25:59.102Z,2.22
2023-02-04T00:28:26.813Z,2.00
2023-02-04T00:30:56.530Z,2.40
2023-02-04T00:33:24.229Z,2.10
2023-02-04T00:35:54.625Z,2.17
2023-02-04T00:38:24.558Z,2.63
2023-02-04T00:40:54.436Z,3.28
2023-02-04T00:43:23.003Z,2.75
2023-02-04T00:45:52.431Z,2.35
2023-02-04T00:48:21.902Z,2.47
2023-02-04T00:50:50.518Z,2.15
2023-02-04T00:53:20.152Z,2.42
2023-02-04T00:55:49.216Z,2.92
2023-02-04T00:58:17.911Z,2.92
2023-02-04T01:00:46.572Z,2.80
2023-02-04T01:03:14.483Z,2.80
2023-02-04T01:05:42.243Z,2.60
2023-02-04T01:08:10.495Z,2.83
2023-02-04T01:10:39.719Z,3.58
2023-02-04T01:13:08.352Z,3.15
2023-02-04T01:15:36.237Z,2.70
2023-02-04T01:18:04.000Z,3.00
2023-02-04T01:20:32.101Z,3.33
2023-02-04T01:23:00.248Z,3.00
2023-02-04T01:25:28.133Z,3.55
2023-02-04T01:27:58.147Z,2.75
2023-02-04T01:30:26.040Z,3.38
2023-02-04T01:32:53.960Z,3.00
2023-02-04T01:35:21.772Z,2.70
2023-02-04T01:37:49.507Z,3.17
2023-02-04T01:40:17.360Z,2.58
2023-02-04T01:42:45.316Z,3.15
2023-02-04T01:45:14.665Z,2.85
2023-02-04T01:47:43.052Z,2.65
2023-02-04T01:50:14.381Z,3.28
2023-02-04T01:52:45.980Z,3.25
2023-02-04T01:55:16.423Z,3.70
2023-02-04T01:57:46.093Z,2.92
2023-02-04T02:00:17.957Z,3.08
2023-02-04T02:02:50.550Z,3.55
2023-02-04T02:05:22.360Z,3.60
2023-02-04T02:07:51.770Z,3.50
2023-02-04T02:10:20.447Z,3.55
2023-02-04T02:12:49.416Z,3.45
2023-02-04T02:15:19.809Z,3.67
2023-02-04T02:17:47.783Z,3.22
2023-02-04T02:20:19.896Z,3.05
2023-02-04T02:22:59.367Z,3.17
2023-02-04T02:25:28.672Z,3.25
2023-02-04T02:27:58.594Z,3.47
2023-02-04T02:30:28.179Z,3.45
2023-02-04T02:32:56.513Z,3.28
2023-02-04T02:35:24.972Z,3.40
2023-02-04T02:37:52.698Z,3.30
2023-02-04T02:40:21.190Z,3.08
2023-02-04T02:42:54.152Z,2.88
2023-02-04T02:45:26.654Z,3.03
2023-02-04T02:47:55.049Z,2.67
2023-02-04T02:50:26.619Z,2.35
2023-02-04T02:52:55.740Z,2.08
2023-02-04T02:55:25.956Z,2.22
2023-02-04T02:57:57.033Z,2.33
2023-02-04T03:00:28.375Z,2.38
2023-02-04T03:03:02.049Z,2.17
2023-02-04T03:05:33.745Z,2.72
2023-02-04T03:08:01.859Z,2.38
2023-02-04T03:10:30.178Z,2.78
2023-02-04T03:13:00.775Z,2.45
2023-02-04T03:15:28.607Z,3.15
2023-02-04T03:17:57.451Z,2.70
2023-02-04T03:20:26.817Z,2.97
2023-02-04T03:22:55.450Z,2.83
2023-02-04T03:25:26.373Z,2.75
2023-02-04T03:27:55.015Z,3.42
2023-02-04T03:30:25.572Z,3.03
2023-02-04T03:32:54.312Z,3.25
2023-02-04T03:35:22.638Z,2.80
2023-02-04T03:37:50.410Z,4.38
2023-02-04T03:40:18.970Z,2.92
2023-02-04T03:42:46.692Z,2.58
2023-02-04T03:45:14.495Z,2.42
2023-02-04T03:47:44.185Z,2.83
2023-02-04T03:50:13.875Z,3.03
2023-02-04T03:52:41.650Z,2.53
2023-02-04T03:55:09.772Z,3.47
2023-02-04T03:57:37.392Z,2.70
2023-02-04T04:00:05.708Z,2.88
2023-02-04T04:02:40.267Z,3.08
2023-02-04T04:05:11.101Z,2.85
2023-02-04T04:07:39.296Z,2.72
2023-02-04T04:10:07.852Z,2.50
2023-02-04T04:12:35.859Z,3.15
2023-02-04T04:15:04.402Z,2.65
2023-02-04T04:17:32.169Z,2.85
2023-02-04T04:19:59.849Z,2.83
2023-02-04T04:22:29.234Z,2.85
2023-02-04T04:24:57.088Z,2.47
2023-02-04T04:27:26.004Z,2.28
2023-02-04T04:29:54.152Z,2.55
2023-02-04T04:32:23.124Z,2.20
2023-02-04T04:34:51.000Z,2.10
2023-02-04T04:37:19.231Z,2.40
2023-02-04T04:39:48.635Z,2.17
2023-02-04T04:42:16.360Z,2.65
2023-02-04T04:44:44.223Z,2.47
2023-02-04T04:47:12.284Z,2.40
2023-02-04T04:49:40.131Z,2.67
2023-02-04T04:52:08.197Z,2.80
2023-02-04T04:54:36.153Z,3.25
2023-02-04T04:57:05.694Z,2.55
2023-02-04T04:59:33.801Z,2.55
2023-02-04T05:02:01.644Z,2.42
2023-02-04T05:04:29.314Z,2.53
2023-02-04T05:06:57.102Z,2.40
2023-02-04T05:09:25.324Z,2.50
2023-02-04T05:11:53.521Z,2.30
2023-02-04T05:14:22.755Z,2.78
2023-02-04T05:16:50.583Z,2.95
2023-02-04T05:19:18.212Z,2.55
2023-02-04T05:21:45.952Z,2.67
2023-02-04T05:24:13.784Z,3.05
2023-02-04T05:26:41.503Z,2.80
2023-02-04T05:29:10.753Z,3.45
2023-02-04T05:31:39.960Z,3.15
2023-02-04T05:34:07.904Z,3.53
2023-02-04T05:36:35.569Z,3.15
2023-02-04T05:39:03.303Z,3.00
2023-02-04T05:41:31.042Z,3.00
2023-02-04T05:43:58.727Z,3.83
2023-02-04T05:46:26.447Z,3.53
2023-02-04T05:48:55.662Z,3.25
2023-02-04T05:51:23.497Z,3.45
2023-02-04T05:53:51.416Z,3.90
2023-02-04T05:56:19.176Z,3.78
2023-02-04T05:58:47.065Z,3.88
2023-02-04T06:01:14.868Z,3.63
2023-02-04T06:03:42.610Z,3.40
2023-02-04T06:06:11.591Z,3.50
2023-02-04T06:08:39.541Z,3.88
2023-02-04T06:11:07.397Z,3.97
2023-02-04T06:13:35.042Z,3.85
2023-02-04T06:16:03.082Z,3.35
2023-02-04T06:18:30.708Z,3.50
2023-02-04T06:20:58.654Z,3.83
2023-02-04T06:23:27.680Z,3.80
2023-02-04T06:25:55.550Z,4.65
2023-02-04T06:28:25.337Z,4.32
2023-02-04T06:30:53.560Z,4.07
2023-02-04T06:33:24.178Z,4.65
2023-02-04T06:35:52.450Z,4.32
2023-02-04T06:38:20.580Z,4.15
2023-02-04T06:40:53.851Z,5.00
2023-02-04T06:43:22.443Z,4.70
2023-02-04T06:45:50.995Z,5.10
2023-02-04T06:48:18.899Z,5.07
2023-02-04T06:50:46.656Z,4.75
2023-02-04T06:53:14.633Z,4.82
2023-02-04T06:55:42.855Z,4.82
2023-02-04T06:58:12.063Z,4.68
2023-02-04T07:00:39.824Z,4.70
2023-02-04T07:03:08.296Z,4.95
2023-02-04T07:05:36.332Z,4.80
2023-02-04T07:08:04.190Z,4.65
2023-02-04T07:10:33.091Z,4.18
2023-02-04T07:13:01.164Z,4.57
2023-02-04T07:15:31.780Z,5.03
2023-02-04T07:18:00.478Z,4.88
2023-02-04T07:20:29.021Z,4.68
2023-02-04T07:22:56.719Z,4.32
2023-02-04T07:25:24.618Z,4.80
2023-02-04T07:27:52.389Z,4.43
2023-02-04T07:30:20.733Z,4.63
2023-02-04T07:32:50.082Z,4.40
2023-02-04T07:35:18.556Z,4.93
2023-02-04T07:37:46.549Z,5.35
2023-02-04T07:40:14.790Z,4.50
2023-02-04T07:42:42.596Z,5.43
2023-02-04T07:45:16.775Z,4.68
2023-02-04T07:47:44.428Z,5.50
2023-02-04T07:50:13.542Z,5.88
2023-02-04T07:52:41.280Z,6.10
2023-02-04T07:55:10.130Z,5.35
2023-02-04T07:57:37.811Z,5.60
2023-02-04T08:00:07.739Z,5.18
2023-02-04T08:02:42.641Z,5.30
2023-02-04T08:05:11.399Z,5.60
2023-02-04T08:07:40.692Z,5.70
2023-02-04T08:10:10.872Z,5.68
2023-02-04T08:12:38.929Z,5.55
2023-02-04T08:15:09.084Z,6.90
2023-02-04T08:17:37.282Z,5.97
2023-02-04T08:20:06.216Z,5.45
2023-02-04T08:22:34.975Z,5.97
2023-02-04T08:25:05.667Z,6.32
2023-02-04T08:27:33.527Z,5.40
2023-02-04T08:30:01.380Z,5.25
2023-02-04T08:32:30.114Z,4.95
2023-02-04T08:34:58.247Z,5.18
2023-02-04T08:37:25.884Z,5.43
2023-02-04T08:39:53.810Z,5.38
2023-02-04T08:42:23.173Z,5.43
2023-02-04T08:44:50.905Z,6.00
2023-02-04T08:47:18.599Z,5.43
2023-02-04T08:49:46.309Z,5.68
2023-02-04T08:52:14.067Z,5.63
2023-02-04T08:54:41.979Z,5.43
2023-02-04T08:57:09.874Z,5.32
2023-02-04T08:59:39.017Z,5.78
2023-02-04T09:02:07.468Z,5.40
2023-02-04T09:04:35.335Z,5.80
2023-02-04T09:07:02.985Z,7.00
2023-02-04T09:09:31.702Z,7.05
2023-02-04T09:12:01.613Z,7.88
2023-02-04T09:14:29.285Z,6.90
2023-02-04T09:16:58.481Z,5.15
2023-02-04T09:19:26.422Z,5.93
2023-02-04T09:21:54.732Z,6.05
2023-02-04T09:24:23.492Z,5.88
2023-02-04T09:26:51.209Z,5.85
2023-02-04T09:29:19.044Z,5.57
2023-02-04T09:31:46.809Z,7.22
2023-02-04T09:34:16.588Z,6.18
2023-02-04T09:36:45.082Z,5.25
2023-02-04T09:39:12.857Z,5.30
2023-02-04T09:41:41.614Z,5.32
2023-02-04T09:44:15.229Z,4.70
2023-02-04T09:46:47.983Z,5.68
2023-02-04T09:49:17.360Z,5.50
2023-02-04T09:51:46.513Z,5.75
2023-02-04T09:54:16.209Z,5.22
2023-02-04T09:56:44.020Z,4.90
2023-02-04T09:59:14.182Z,4.82
2023-02-04T10:01:42.264Z,4.75
2023-02-04T10:04:13.733Z,5.65
2023-02-04T10:06:44.297Z,4.45
2023-02-04T10:09:13.888Z,5.53
2023-02-04T10:11:43.146Z,4.75
2023-02-04T10:14:15.350Z,5.57
2023-02-04T10:16:45.056Z,5.18
2023-02-04T10:19:15.859Z,5.13
2023-02-04T10:21:46.490Z,5.18
2023-02-04T10:24:17.175Z,5.60
2023-02-04T10:26:45.121Z,4.85
2023-02-04T10:29:17.776Z,4.72
2023-02-04T10:31:47.260Z,5.35
2023-02-04T10:34:18.581Z,5.75
2023-02-04T10:36:49.992Z,4.75
2023-02-04T10:39:19.950Z,5.20
2023-02-04T10:41:50.049Z,5.63
2023-02-04T10:44:20.076Z,3.92
2023-02-04T10:46:48.336Z,4.00
2023-02-04T10:49:22.111Z,4.07
2023-02-04T10:51:52.662Z,4.30
2023-02-04T10:54:30.108Z,4.22
2023-02-04T10:56:58.903Z,5.07
2023-02-04T10:59:27.907Z,4.70
2023-02-04T11:01:57.962Z,5.35
2023-02-04T11:04:28.805Z,5.10
2023-02-04T11:06:57.931Z,4.15
2023-02-04T11:09:26.120Z,5.07
2023-02-04T11:11:53.854Z,4.95
2023-02-04T11:14:30.804Z,4.70
2023-02-04T11:17:02.380Z,4.93
2023-02-04T11:19:38.963Z,4.22
2023-02-04T11:22:22.598Z,4.57
2023-02-04T11:24:50.801Z,4.20
2023-02-04T11:27:24.478Z,4.32
2023-02-04T11:29:52.777Z,4.78
2023-02-04T11:32:33.207Z,4.97
2023-02-04T11:35:22.039Z,5.65
2023-02-04T11:37:51.269Z,4.20
2023-02-04T11:40:25.447Z,4.55
2023-02-04T11:42:58.686Z,4.50
2023-02-04T11:45:30.264Z,4.15
2023-02-04T11:48:00.680Z,4.35
2023-02-04T11:50:31.395Z,4.68
2023-02-04T11:53:02.869Z,4.22
2023-02-04T11:55:32.696Z,4.40
2023-02-04T11:58:00.822Z,4.25
2023-02-04T12:00:31.964Z,5.70
2023-02-04T12:03:02.820Z,4.97
2023-02-04T12:05:40.917Z,5.38
2023-02-04T12:08:14.453Z,4.50
2023-02-04T12:10:49.245Z,5.55
2023-02-04T12:13:18.994Z,5.75
2023-02-04T12:15:55.668Z,4.85
2023-02-04T12:18:23.458Z,3.85
2023-02-04T12:20:51.305Z,5.13
2023-02-04T12:23:21.079Z,4.43
2023-02-04T12:25:49.642Z,4.90
2023-02-04T12:28:17.872Z,4.53
2023-02-04T12:30:46.063Z,4.47
2023-02-04T12:33:15.041Z,4.32
2023-02-04T12:35:43.336Z,4.28
2023-02-04T12:38:11.238Z,4.40
2023-02-04T12:40:40.512Z,5.20
2023-02-04T12:43:08.502Z,4.03
2023-02-04T12:45:36.405Z,4.43
2023-02-04T12:48:04.460Z,4.00
2023-02-04T12:50:32.447Z,4.30
2023-02-04T12:53:00.807Z,5.10
2023-02-04T12:55:30.749Z,4.32
2023-02-04T12:58:00.124Z,4.13
2023-02-04T13:00:28.305Z,3.33
2023-02-04T13:02:56.163Z,4.32
2023-02-04T13:05:23.913Z,4.40
2023-02-04T13:07:52.500Z,4.03
2023-02-04T13:10:21.797Z,4.30
2023-02-04T13:12:49.862Z,3.53
2023-02-04T13:15:19.531Z,4.13
2023-02-04T13:17:47.481Z,3.45
2023-02-04T13:20:15.353Z,4.10
2023-02-04T13:22:43.430Z,3.85
2023-02-04T13:25:12.194Z,4.07
2023-02-04T13:27:40.328Z,4.00
2023-02-04T13:30:11.278Z,3.80
2023-02-04T13:32:41.029Z,3.75
2023-02-04T13:35:09.669Z,4.38
2023-02-04T13:37:38.318Z,3.15
2023-02-04T13:40:07.719Z,3.05
2023-02-04T13:42:36.144Z,3.53
2023-02-04T13:45:05.953Z,3.40
2023-02-04T13:47:34.034Z,3.65
2023-02-04T13:50:03.469Z,3.28
2023-02-04T13:52:32.916Z,3.90
2023-02-04T13:55:00.700Z,3.75
2023-02-04T13:57:30.236Z,3.85
2023-02-04T13:59:57.989Z,3.28
2023-02-04T14:02:26.098Z,3.75
2023-02-04T14:04:53.827Z,3.28
2023-02-04T14:07:23.018Z,3.47
2023-02-04T14:09:53.688Z,3.60
2023-02-04T14:12:21.384Z,3.38
2023-02-04T14:14:49.131Z,3.58
2023-02-04T14:17:17.011Z,3.67
2023-02-04T14:19:45.085Z,3.60
2023-02-04T14:22:13.707Z,3.33
2023-02-04T14:24:43.403Z,3.10
2023-02-04T14:27:11.822Z,2.85
2023-02-04T14:29:39.564Z,3.00
2023-02-04T14:32:08.336Z,3.08
2023-02-04T14:34:36.213Z,3.05
2023-02-04T14:37:04.022Z,2.92
2023-02-04T14:39:31.811Z,3.28
2023-02-04T14:42:04.628Z,3.33
2023-02-04T14:44:32.655Z,4.30
2023-02-04T14:47:00.683Z,3.17
2023-02-04T14:49:28.680Z,3.38
2023-02-04T14:51:56.853Z,2.67
2023-02-04T14:54:25.172Z,3.42
2023-02-04T14:56:53.055Z,3.67
2023-02-04T14:59:22.786Z,4.43
2023-02-04T15:01:50.771Z,5.00
2023-02-04T15:04:19.047Z,4.28
2023-02-04T15:06:47.164Z,3.58
2023-02-04T15:09:14.861Z,3.17
2023-02-04T15:11:42.735Z,2.85
2023-02-04T15:14:10.605Z,3.67
2023-02-04T15:16:41.987Z,3.25
2023-02-04T15:19:09.910Z,3.47
2023-02-04T15:21:37.750Z,3.28
2023-02-04T15:24:05.786Z,2.80
2023-02-04T15:26:33.630Z,3.33
2023-02-04T15:29:02.176Z,3.25
2023-02-04T15:31:30.249Z,3.70
2023-02-04T15:33:59.617Z,3.30
2023-02-04T15:36:27.366Z,3.40
2023-02-04T15:38:55.583Z,3.80
2023-02-04T15:41:23.958Z,3.13
2023-02-04T15:43:51.765Z,3.08
2023-02-04T15:46:19.906Z,3.58
2023-02-04T15:48:48.925Z,3.08
2023-02-04T15:51:18.343Z,3.08
2023-02-04T15:53:46.420Z,3.80
2023-02-04T15:56:15.092Z,3.88
2023-02-04T15:58:42.849Z,3.38
2023-02-04T16:01:10.654Z,3.10
2023-02-04T16:03:38.776Z,3.35
2023-02-04T16:06:07.085Z,4.28
2023-02-04T16:08:36.864Z,5.47
2023-02-04T16:11:06.013Z,5.72
2023-02-04T16:13:34.402Z,5.88
2023-02-04T16:16:02.556Z,6.65
2023-02-04T16:18:30.846Z,6.38
2023-02-04T16:20:59.139Z,7.15
2023-02-04T16:23:26.989Z,6.68
2023-02-04T16:25:56.647Z,7.40
2023-02-04T16:28:25.371Z,9.23
2023-02-04T16:30:53.589Z,10.27
2023-02-04T16:33:21.444Z,12.65
2023-02-04T16:36:01.147Z,12.88
2023-02-04T16:38:29.624Z,12.23
2023-02-04T16:40:59.629Z,11.57
2023-02-04T16:43:27.639Z,10.02
2023-02-04T16:45:55.700Z,9.02
2023-02-04T16:48:24.354Z,6.22
2023-02-04T16:50:52.777Z,6.70
2023-02-04T16:53:20.552Z,6.28
2023-02-04T16:55:49.202Z,6.38
2023-02-04T16:58:19.727Z,5.85
2023-02-04T17:00:48.590Z,6.00
2023-02-04T17:03:16.649Z,6.20
2023-02-04T17:05:44.854Z,5.90
2023-02-04T17:08:15.123Z,5.95
2023-02-04T17:11:00.599Z,5.68
2023-02-04T17:13:29.693Z,4.78
2023-02-04T17:16:01.033Z,5.75
2023-02-04T17:18:30.190Z,5.72
2023-02-04T17:20:59.040Z,7.07
2023-02-04T17:23:28.223Z,5.95
2023-02-04T17:25:56.577Z,5.57
2023-02-04T17:28:26.190Z,6.72
2023-02-04T17:30:55.784Z,8.10
2023-02-04T17:33:23.743Z,6.40
2023-02-04T17:35:51.660Z,6.35
2023-02-04T17:38:19.876Z,6.38
2023-02-04T17:40:50.040Z,7.75
2023-02-04T17:43:18.030Z,7.07
2023-02-04T17:45:45.762Z,6.65
2023-02-04T17:48:15.151Z,6.70
2023-02-04T17:50:43.814Z,6.60
2023-02-04T17:53:12.578Z,7.22
2023-02-04T17:55:40.483Z,7.15
2023-02-04T17:58:13.823Z,6.68
2023-02-04T18:00:43.203Z,7.88
2023-02-04T18:03:15.265Z,7.72
2023-02-04T18:05:46.513Z,8.07
2023-02-04T18:08:17.078Z,10.50
2023-02-04T18:10:49.567Z,11.98
2023-02-04T18:13:20.053Z,11.13
2023-02-04T18:15:51.264Z,11.93
2023-02-04T18:18:24.017Z,10.52
2023-02-04T18:21:00.409Z,10.75
2023-02-04T18:23:30.965Z,10.63
2023-02-04T18:26:06.772Z,10.63
2023-02-04T18:28:36.887Z,9.55
2023-02-04T18:31:39.375Z,10.38
2023-02-04T18:34:30.878Z,9.52
2023-02-04T18:37:02.974Z,11.43
2023-02-04T18:39:34.337Z,11.32
2023-02-04T18:42:02.402Z,13.50
2023-02-04T18:44:33.861Z,14.93
2023-02-04T18:47:03.294Z,18.65
2023-02-04T18:49:35.359Z,17.88
2023-02-04T18:52:16.346Z,18.75
2023-02-04T18:54:48.426Z,19.63
2023-02-04T18:57:35.189Z,20.73
2023-02-04T19:00:22.953Z,16.75
2023-02-04T19:02:55.074Z,14.68
2023-02-04T19:05:47.324Z,13.98
2023-02-04T19:08:23.488Z,13.63
2023-02-04T19:10:52.692Z,13.45
2023-02-04T19:13:23.168Z,12.75
2023-02-04T19:15:57.967Z,12.75
2023-02-04T19:18:28.702Z,12.00
2023-02-04T19:21:09.630Z,12.52
2023-02-04T19:23:39.142Z,13.15
2023-02-04T19:26:26.780Z,11.02
2023-02-04T19:28:55.752Z,9.82
2023-02-04T19:31:24.052Z,9.52
2023-02-04T19:33:54.207Z,22.67
2023-02-04T19:36:31.495Z,10.45
2023-02-04T19:39:01.872Z,8.65
2023-02-04T19:41:35.094Z,8.90
2023-02-04T19:44:30.580Z,8.10
2023-02-04T19:46:58.928Z,10.23
2023-02-04T19:49:30.819Z,11.75
2023-02-04T19:52:00.938Z,14.15
2023-02-04T19:54:39.224Z,14.38
2023-02-04T19:57:19.035Z,14.27
2023-02-04T19:59:47.227Z,13.80
2023-02-04T20:02:29.238Z,13.65
2023-02-04T20:04:57.341Z,15.93
2023-02-04T20:07:28.657Z,15.15
2023-02-04T20:10:04.654Z,14.75
2023-02-04T20:12:34.420Z,14.15
2023-02-04T20:15:11.928Z,22.67
2023-02-04T20:17:41.276Z,21.83
2023-02-04T20:20:19.089Z,12.55
2023-02-04T20:22:50.897Z,8.38
2023-02-04T20:25:40.683Z,9.23
2023-02-04T20:28:23.409Z,8.63
2023-02-04T20:30:52.935Z,9.38
2023-02-04T20:33:34.443Z,14.73
2023-02-04T20:36:30.547Z,12.98
2023-02-04T20:39:18.502Z,15.30
2023-02-04T20:41:46.671Z,17.73
2023-02-04T20:44:18.663Z,17.85
2023-02-04T20:46:46.695Z,13.20
2023-02-04T20:49:24.127Z,10.77
2023-02-04T20:51:52.616Z,10.10
2023-02-04T20:54:22.008Z,11.93
2023-02-04T20:56:50.179Z,13.27
2023-02-04T20:59:28.576Z,16.55
2023-02-04T21:01:57.178Z,14.07
2023-02-04T21:04:30.281Z,8.20
2023-02-04T21:07:02.610Z,7.88
2023-02-04T21:09:34.486Z,8.15
2023-02-04T21:12:03.964Z,7.28
2023-02-04T21:14:31.812Z,7.53
2023-02-04T21:17:00.645Z,8.15
2023-02-04T21:19:29.255Z,7.10
2023-02-04T21:21:57.523Z,7.45
2023-02-04T21:24:25.767Z,8.02
2023-02-04T21:26:55.591Z,7.93
2023-02-04T21:29:23.344Z,7.38
2023-02-04T21:31:52.569Z,8.23
2023-02-04T21:34:20.650Z,7.13
2023-02-04T21:36:48.404Z,7.28
2023-02-04T21:39:16.284Z,8.00
2023-02-04T21:41:44.046Z,7.43
2023-02-04T21:44:13.228Z,11.43
2023-02-04T21:46:40.960Z,20.27
2023-02-04T21:49:09.003Z,9.15
2023-02-04T21:51:37.531Z,8.15
2023-02-04T21:54:06.254Z,8.63
2023-02-04T21:56:34.301Z,10.18
2023-02-04T21:59:02.501Z,10.88
2023-02-04T22:01:31.719Z,13.43
2023-02-04T22:04:00.123Z,12.00
2023-02-04T22:06:28.627Z,11.13
2023-02-04T22:08:57.175Z,10.15
2023-02-04T22:11:25.958Z,9.77
2023-02-04T22:14:06.723Z,11.25
2023-02-04T22:16:36.153Z,10.75
2023-02-04T22:19:04.432Z,9.80
2023-02-04T22:21:34.370Z,8.57
2023-02-04T22:24:02.138Z,8.90
2023-02-04T22:26:30.283Z,8.85
2023-02-04T22:28:57.977Z,8.73
2023-02-04T22:31:25.697Z,8.98
2023-02-04T22:33:55.085Z,7.88
2023-02-04T22:36:23.033Z,7.70
2023-02-04T22:38:51.332Z,9.00
2023-02-04T22:41:19.116Z,8.98
2023-02-04T22:43:47.026Z,10.18
2023-02-04T22:46:16.046Z,22.13
2023-02-04T22:48:43.766Z,17.88
2023-02-04T22:51:13.019Z,10.70
2023-02-04T22:53:40.661Z,9.30
2023-02-04T22:56:08.635Z,9.50
2023-02-04T22:58:36.376Z,10.82
2023-02-04T23:01:04.217Z,10.88
2023-02-04T23:03:31.943Z,11.05
2023-02-04T23:05:59.924Z,10.75
2023-02-04T23:08:28.933Z,10.23
2023-02-04T23:10:57.101Z,11.57
2023-02-04T23:13:24.864Z,12.70
2023-02-04T23:15:52.592Z,14.13
2023-02-04T23:18:20.321Z,14.10
2023-02-04T23:20:48.069Z,13.82
2023-02-04T23:23:17.490Z,12.63
2023-02-04T23:25:47.023Z,10.63
2023-02-04T23:28:16.020Z,12.43
2023-02-04T23:30:43.960Z,13.13
2023-02-04T23:33:12.783Z,15.60
2023-02-04T23:35:40.580Z,16.33
2023-02-04T23:38:08.195Z,16.03
2023-02-04T23:40:35.932Z,14.37
2023-02-04T23:43:05.051Z,13.93
2023-02-04T23:45:33.125Z,14.23
2023-02-04T23:48:01.203Z,13.77
2023-02-04T23:50:28.888Z,14.13
2023-02-04T23:52:56.516Z,12.83
2023-02-04T23:55:25.792Z,15.83
2023-02-04T23:57:53.497Z,16.90
